sensor_id;sensor_type;location;lat;lon;timestamp;P1;durP1;ratioP1;P2;durP2;ratioP2
44430;SDS011;30135;47.866;-4.222;2023-04-16T00:01:25;16.75;;;5.03;;
44430;SDS011;30135;47.866;-4.222;2023-04-16T00:03:51;12.02;;;3.47;;
44430;SDS011;30135;47.866;-4.222;2023-04-16T00:06:17;13.45;;;4.13;;
44430;SDS011;30135;47.866;-4.222;2023-04-16T00:08:43;13.98;;;4.18;;
44430;SDS011;30135;47.866;-4.222;2023-04-16T00:11:10;9.35;;;3.35;;
44430;SDS011;30135;47.866;-4.222;2023-04-16T00:13:38;6.97;;;2.55;;
44430;SDS011;30135;47.866;-4.222;2023-04-16T00:16:04;13.82;;;2.50;;
44430;SDS011;30135;47.866;-4.222;2023-04-16T00:18:30;11.30;;;3.38;;
44430;SDS011;30135;47.866;-4.222;2023-04-16T00:20:57;10.07;;;2.55;;
44430;SDS011;30135;47.866;-4.222;2023-04-16T00:23:23;15.30;;;3.88;;
44430;SDS011;30135;47.866;-4.222;2023-04-16T00:25:50;12.02;;;2.60;;
44430;SDS011;30135;47.866;-4.222;2023-04-16T00:28:17;10.35;;;2.55;;
44430;SDS011;30135;47.866;-4.222;2023-04-16T00:30:43;9.38;;;1.95;;
44430;SDS011;30135;47.866;-4.222;2023-04-16T00:33:09;11.93;;;2.45;;
44430;SDS011;30135;47.866;-4.222;2023-04-16T00:35:35;12.85;;;2.60;;
44430;SDS011;30135;47.866;-4.222;2023-04-16T00:38:01;11.27;;;1.95;;
44430;SDS011;30135;47.866;-4.222;2023-04-16T00:40:28;4.78;;;2.15;;
44430;SDS011;30135;47.866;-4.222;2023-04-16T00:42:54;12.90;;;3.08;;
44430;SDS011;30135;47.866;-4.222;2023-04-16T00:45:20;5.72;;;1.55;;
44430;SDS011;30135;47.866;-4.222;2023-04-16T00:47:46;3.90;;;1.35;;
44430;SDS011;30135;47.866;-4.222;2023-04-16T00:50:12;17.77;;;1.83;;
44430;SDS011;30135;47.866;-4.222;2023-04-16T00:52:42;3.92;;;2.25;;
44430;SDS011;30135;47.866;-4.222;2023-04-16T00:55:08;12.65;;;2.85;;
44430;SDS011;30135;47.866;-4.222;2023-04-16T00:57:37;5.68;;;1.85;;
44430;SDS011;30135;47.866;-4.222;2023-04-16T01:00:04;14.35;;;2.97;;
44430;SDS011;30135;47.866;-4.222;2023-04-16T01:02:32;13.02;;;2.83;;
44430;SDS011;30135;47.866;-4.222;2023-04-16T01:04:59;14.80;;;1.90;;
44430;SDS011;30135;47.866;-4.222;2023-04-16T01:07:26;8.38;;;2.10;;
44430;SDS011;30135;47.866;-4.222;2023-04-16T01:09:52;3.78;;;1.70;;
44430;SDS011;30135;47.866;-4.222;2023-04-16T01:12:18;6.32;;;2.70;;
44430;SDS011;30135;47.866;-4.222;2023-04-16T01:14:44;14.02;;;2.17;;
44430;SDS011;30135;47.866;-4.222;2023-04-16T01:17:10;8.93;;;1.85;;
44430;SDS011;30135;47.866;-4.222;2023-04-16T01:19:36;6.47;;;1.60;;
44430;SDS011;30135;47.866;-4.222;2023-04-16T01:22:02;5.68;;;1.88;;
44430;SDS011;30135;47.866;-4.222;2023-04-16T01:24:29;14.75;;;1.65;;
44430;SDS011;30135;47.866;-4.222;2023-04-16T01:26:58;8.70;;;2.55;;
44430;SDS011;30135;47.866;-4.222;2023-04-16T01:29:25;17.40;;;1.58;;
44430;SDS011;30135;47.866;-4.222;2023-04-16T01:31:51;10.68;;;1.75;;
44430;SDS011;30135;47.866;-4.222;2023-04-16T01:34:18;17.30;;;1.50;;
44430;SDS011;30135;47.866;-4.222;2023-04-16T01:36:44;4.10;;;1.25;;
44430;SDS011;30135;47.866;-4.222;2023-04-16T01:39:10;7.47;;;1.38;;
44430;SDS011;30135;47.866;-4.222;2023-04-16T01:41:39;7.50;;;1.77;;
44430;SDS011;30135;47.866;-4.222;2023-04-16T01:44:14;8.98;;;1.85;;
44430;SDS011;30135;47.866;-4.222;2023-04-16T01:46:40;7.60;;;1.90;;
44430;SDS011;30135;47.866;-4.222;2023-04-16T01:49:07;5.13;;;2.10;;
44430;SDS011;30135;47.866;-4.222;2023-04-16T01:51:33;11.48;;;2.20;;
44430;SDS011;30135;47.866;-4.222;2023-04-16T01:53:59;12.07;;;3.42;;
44430;SDS011;30135;47.866;-4.222;2023-04-16T01:56:26;10.57;;;1.95;;
44430;SDS011;30135;47.866;-4.222;2023-04-16T01:58:52;4.35;;;1.20;;
44430;SDS011;30135;47.866;-4.222;2023-04-16T02:01:21;5.25;;;1.75;;
44430;SDS011;30135;47.866;-4.222;2023-04-16T02:03:47;14.27;;;1.42;;
44430;SDS011;30135;47.866;-4.222;2023-04-16T02:06:13;11.18;;;1.40;;
44430;SDS011;30135;47.866;-4.222;2023-04-16T02:08:39;5.20;;;1.02;;
44430;SDS011;30135;47.866;-4.222;2023-04-16T02:11:05;5.25;;;1.48;;
44430;SDS011;30135;47.866;-4.222;2023-04-16T02:13:31;10.30;;;1.85;;
44430;SDS011;30135;47.866;-4.222;2023-04-16T02:15:57;3.03;;;1.25;;
44430;SDS011;30135;47.866;-4.222;2023-04-16T02:18:23;3.90;;;1.63;;
44430;SDS011;30135;47.866;-4.222;2023-04-16T02:20:49;7.85;;;1.40;;
44430;SDS011;30135;47.866;-4.222;2023-04-16T02:23:15;5.00;;;1.08;;
44430;SDS011;30135;47.866;-4.222;2023-04-16T02:25:42;7.90;;;2.03;;
44430;SDS011;30135;47.866;-4.222;2023-04-16T02:28:11;3.08;;;1.48;;
44430;SDS011;30135;47.866;-4.222;2023-04-16T02:33:08;5.35;;;1.33;;
44430;SDS011;30135;47.866;-4.222;2023-04-16T02:35:36;6.28;;;1.60;;
44430;SDS011;30135;47.866;-4.222;2023-04-16T02:38:03;4.00;;;1.48;;
44430;SDS011;30135;47.866;-4.222;2023-04-16T02:40:30;4.18;;;1.48;;
44430;SDS011;30135;47.866;-4.222;2023-04-16T02:42:58;3.85;;;1.00;;
44430;SDS011;30135;47.866;-4.222;2023-04-16T02:45:24;3.10;;;1.25;;
44430;SDS011;30135;47.866;-4.222;2023-04-16T02:47:51;6.95;;;2.38;;
44430;SDS011;30135;47.866;-4.222;2023-04-16T02:50:17;6.00;;;1.20;;
44430;SDS011;30135;47.866;-4.222;2023-04-16T02:52:43;4.70;;;1.52;;
44430;SDS011;30135;47.866;-4.222;2023-04-16T02:55:09;14.00;;;1.35;;
44430;SDS011;30135;47.866;-4.222;2023-04-16T02:57:35;4.90;;;1.33;;
44430;SDS011;30135;47.866;-4.222;2023-04-16T03:00:02;3.55;;;0.75;;
44430;SDS011;30135;47.866;-4.222;2023-04-16T03:02:29;3.78;;;0.68;;
44430;SDS011;30135;47.866;-4.222;2023-04-16T03:04:55;1.70;;;0.80;;
44430;SDS011;30135;47.866;-4.222;2023-04-16T03:07:21;3.90;;;1.08;;
44430;SDS011;30135;47.866;-4.222;2023-04-16T03:09:47;5.22;;;1.45;;
44430;SDS011;30135;47.866;-4.222;2023-04-16T03:12:13;5.47;;;1.15;;
44430;SDS011;30135;47.866;-4.222;2023-04-16T03:14:39;1.80;;;0.80;;
44430;SDS011;30135;47.866;-4.222;2023-04-16T03:17:05;8.02;;;1.30;;
44430;SDS011;30135;47.866;-4.222;2023-04-16T03:19:31;10.13;;;1.20;;
44430;SDS011;30135;47.866;-4.222;2023-04-16T03:21:57;2.05;;;0.90;;
44430;SDS011;30135;47.866;-4.222;2023-04-16T03:24:23;1.30;;;0.70;;
44430;SDS011;30135;47.866;-4.222;2023-04-16T03:26:50;9.13;;;1.20;;
44430;SDS011;30135;47.866;-4.222;2023-04-16T03:29:16;6.13;;;0.95;;
44430;SDS011;30135;47.866;-4.222;2023-04-16T03:31:42;4.60;;;1.02;;
44430;SDS011;30135;47.866;-4.222;2023-04-16T03:34:08;7.18;;;2.00;;
44430;SDS011;30135;47.866;-4.222;2023-04-16T03:36:34;8.40;;;1.17;;
44430;SDS011;30135;47.866;-4.222;2023-04-16T03:39:00;3.20;;;0.80;;
44430;SDS011;30135;47.866;-4.222;2023-04-16T03:41:25;6.97;;;0.82;;
44430;SDS011;30135;47.866;-4.222;2023-04-16T03:43:51;6.03;;;2.72;;
44430;SDS011;30135;47.866;-4.222;2023-04-16T03:46:17;5.60;;;1.15;;
44430;SDS011;30135;47.866;-4.222;2023-04-16T03:48:43;2.50;;;0.90;;
44430;SDS011;30135;47.866;-4.222;2023-04-16T03:51:09;5.65;;;1.15;;
44430;SDS011;30135;47.866;-4.222;2023-04-16T03:53:35;6.18;;;0.80;;
44430;SDS011;30135;47.866;-4.222;2023-04-16T03:56:03;12.38;;;1.27;;
44430;SDS011;30135;47.866;-4.222;2023-04-16T03:58:30;5.95;;;1.00;;
44430;SDS011;30135;47.866;-4.222;2023-04-16T04:00:55;5.53;;;1.13;;
44430;SDS011;30135;47.866;-4.222;2023-04-16T04:03:21;2.65;;;1.15;;
44430;SDS011;30135;47.866;-4.222;2023-04-16T04:05:48;4.45;;;1.45;;
44430;SDS011;30135;47.866;-4.222;2023-04-16T04:08:14;3.65;;;0.95;;
44430;SDS011;30135;47.866;-4.222;2023-04-16T04:10:40;2.83;;;1.45;;
44430;SDS011;30135;47.866;-4.222;2023-04-16T04:13:06;5.55;;;0.75;;
44430;SDS011;30135;47.866;-4.222;2023-04-16T04:15:32;4.20;;;1.50;;
44430;SDS011;30135;47.866;-4.222;2023-04-16T04:17:58;5.65;;;1.20;;
44430;SDS011;30135;47.866;-4.222;2023-04-16T04:20:24;3.85;;;0.90;;
44430;SDS011;30135;47.866;-4.222;2023-04-16T04:22:50;2.33;;;0.50;;
44430;SDS011;30135;47.866;-4.222;2023-04-16T04:25:16;2.33;;;0.70;;
44430;SDS011;30135;47.866;-4.222;2023-04-16T04:27:42;1.13;;;0.60;;
44430;SDS011;30135;47.866;-4.222;2023-04-16T04:30:08;6.13;;;0.90;;
44430;SDS011;30135;47.866;-4.222;2023-04-16T04:32:35;4.65;;;0.90;;
44430;SDS011;30135;47.866;-4.222;2023-04-16T04:35:01;3.03;;;0.80;;
44430;SDS011;30135;47.866;-4.222;2023-04-16T04:37:28;3.47;;;0.80;;
44430;SDS011;30135;47.866;-4.222;2023-04-16T04:39:56;2.35;;;0.60;;
44430;SDS011;30135;47.866;-4.222;2023-04-16T04:42:22;8.13;;;2.30;;
44430;SDS011;30135;47.866;-4.222;2023-04-16T04:44:49;4.13;;;0.95;;
44430;SDS011;30135;47.866;-4.222;2023-04-16T04:47:15;8.35;;;0.95;;
44430;SDS011;30135;47.866;-4.222;2023-04-16T04:49:41;1.85;;;0.75;;
44430;SDS011;30135;47.866;-4.222;2023-04-16T04:52:07;6.68;;;1.02;;
44430;SDS011;30135;47.866;-4.222;2023-04-16T04:54:33;4.63;;;1.33;;
44430;SDS011;30135;47.866;-4.222;2023-04-16T04:56:59;2.53;;;1.02;;
44430;SDS011;30135;47.866;-4.222;2023-04-16T04:59:25;6.10;;;1.08;;
44430;SDS011;30135;47.866;-4.222;2023-04-16T05:01:58;1.73;;;0.75;;
44430;SDS011;30135;47.866;-4.222;2023-04-16T05:04:24;2.28;;;0.82;;
44430;SDS011;30135;47.866;-4.222;2023-04-16T05:06:50;6.05;;;0.80;;
44430;SDS011;30135;47.866;-4.222;2023-04-16T05:09:16;2.22;;;0.70;;
44430;SDS011;30135;47.866;-4.222;2023-04-16T05:11:42;3.80;;;1.00;;
44430;SDS011;30135;47.866;-4.222;2023-04-16T05:14:08;4.95;;;0.75;;
44430;SDS011;30135;47.866;-4.222;2023-04-16T05:16:35;12.30;;;1.77;;
44430;SDS011;30135;47.866;-4.222;2023-04-16T05:19:01;4.10;;;1.42;;
44430;SDS011;30135;47.866;-4.222;2023-04-16T05:21:28;5.18;;;1.92;;
44430;SDS011;30135;47.866;-4.222;2023-04-16T05:23:54;4.70;;;2.75;;
44430;SDS011;30135;47.866;-4.222;2023-04-16T05:26:20;6.65;;;1.80;;
44430;SDS011;30135;47.866;-4.222;2023-04-16T05:28:47;1.85;;;0.57;;
44430;SDS011;30135;47.866;-4.222;2023-04-16T05:31:13;5.00;;;1.33;;
44430;SDS011;30135;47.866;-4.222;2023-04-16T05:33:39;3.92;;;1.30;;
44430;SDS011;30135;47.866;-4.222;2023-04-16T05:36:05;1.88;;;1.00;;
44430;SDS011;30135;47.866;-4.222;2023-04-16T05:38:37;5.70;;;1.50;;
44430;SDS011;30135;47.866;-4.222;2023-04-16T05:41:03;5.00;;;0.95;;
44430;SDS011;30135;47.866;-4.222;2023-04-16T05:43:29;6.75;;;1.23;;
44430;SDS011;30135;47.866;-4.222;2023-04-16T05:45:55;5.13;;;1.88;;
44430;SDS011;30135;47.866;-4.222;2023-04-16T05:48:21;1.35;;;0.70;;
44430;SDS011;30135;47.866;-4.222;2023-04-16T05:50:47;3.72;;;0.98;;
44430;SDS011;30135;47.866;-4.222;2023-04-16T05:53:14;3.80;;;0.85;;
44430;SDS011;30135;47.866;-4.222;2023-04-16T05:55:43;7.97;;;1.20;;
44430;SDS011;30135;47.866;-4.222;2023-04-16T05:58:09;3.38;;;0.57;;
44430;SDS011;30135;47.866;-4.222;2023-04-16T06:00:35;2.55;;;1.55;;
44430;SDS011;30135;47.866;-4.222;2023-04-16T06:03:01;2.25;;;0.52;;
44430;SDS011;30135;47.866;-4.222;2023-04-16T06:05:27;5.68;;;1.75;;
44430;SDS011;30135;47.866;-4.222;2023-04-16T06:07:54;8.65;;;0.85;;
44430;SDS011;30135;47.866;-4.222;2023-04-16T06:10:21;2.40;;;0.70;;
44430;SDS011;30135;47.866;-4.222;2023-04-16T06:12:47;8.57;;;0.95;;
44430;SDS011;30135;47.866;-4.222;2023-04-16T06:15:13;3.40;;;0.60;;
44430;SDS011;30135;47.866;-4.222;2023-04-16T06:17:39;1.80;;;1.00;;
44430;SDS011;30135;47.866;-4.222;2023-04-16T06:20:05;4.82;;;1.23;;
44430;SDS011;30135;47.866;-4.222;2023-04-16T06:22:33;1.02;;;0.45;;
44430;SDS011;30135;47.866;-4.222;2023-04-16T06:24:59;4.55;;;0.90;;
44430;SDS011;30135;47.866;-4.222;2023-04-16T06:27:25;4.32;;;1.08;;
44430;SDS011;30135;47.866;-4.222;2023-04-16T06:29:51;5.90;;;1.17;;
44430;SDS011;30135;47.866;-4.222;2023-04-16T06:32:17;5.25;;;1.25;;
44430;SDS011;30135;47.866;-4.222;2023-04-16T06:34:43;1.40;;;0.50;;
44430;SDS011;30135;47.866;-4.222;2023-04-16T06:37:09;1.83;;;0.65;;
44430;SDS011;30135;47.866;-4.222;2023-04-16T06:39:35;9.90;;;0.70;;
44430;SDS011;30135;47.866;-4.222;2023-04-16T06:42:01;3.35;;;0.63;;
44430;SDS011;30135;47.866;-4.222;2023-04-16T06:44:28;5.18;;;0.45;;
44430;SDS011;30135;47.866;-4.222;2023-04-16T06:46:54;1.80;;;0.45;;
44430;SDS011;30135;47.866;-4.222;2023-04-16T06:49:20;1.65;;;0.60;;
44430;SDS011;30135;47.866;-4.222;2023-04-16T06:51:46;3.17;;;0.90;;
44430;SDS011;30135;47.866;-4.222;2023-04-16T06:54:12;1.98;;;0.50;;
44430;SDS011;30135;47.866;-4.222;2023-04-16T06:56:38;2.85;;;0.70;;
44430;SDS011;30135;47.866;-4.222;2023-04-16T06:59:04;3.30;;;0.70;;
44430;SDS011;30135;47.866;-4.222;2023-04-16T07:01:31;3.13;;;0.75;;
44430;SDS011;30135;47.866;-4.222;2023-04-16T07:03:58;1.92;;;0.52;;
44430;SDS011;30135;47.866;-4.222;2023-04-16T07:06:24;3.70;;;0.68;;
44430;SDS011;30135;47.866;-4.222;2023-04-16T07:08:51;7.10;;;1.27;;
44430;SDS011;30135;47.866;-4.222;2023-04-16T07:11:17;5.30;;;0.85;;
44430;SDS011;30135;47.866;-4.222;2023-04-16T07:13:43;9.43;;;1.33;;
44430;SDS011;30135;47.866;-4.222;2023-04-16T07:16:09;8.02;;;1.20;;
44430;SDS011;30135;47.866;-4.222;2023-04-16T07:18:35;16.55;;;1.50;;
44430;SDS011;30135;47.866;-4.222;2023-04-16T07:21:02;4.03;;;0.70;;
44430;SDS011;30135;47.866;-4.222;2023-04-16T07:23:28;7.30;;;1.40;;
44430;SDS011;30135;47.866;-4.222;2023-04-16T07:25:55;8.00;;;1.05;;
44430;SDS011;30135;47.866;-4.222;2023-04-16T07:28:21;4.72;;;0.93;;
44430;SDS011;30135;47.866;-4.222;2023-04-16T07:30:48;1.77;;;1.27;;
44430;SDS011;30135;47.866;-4.222;2023-04-16T07:33:14;2.05;;;0.85;;
44430;SDS011;30135;47.866;-4.222;2023-04-16T07:35:40;3.75;;;1.02;;
44430;SDS011;30135;47.866;-4.222;2023-04-16T07:38:06;7.78;;;1.55;;
44430;SDS011;30135;47.866;-4.222;2023-04-16T07:40:32;12.35;;;1.73;;
44430;SDS011;30135;47.866;-4.222;2023-04-16T07:42:59;8.80;;;1.00;;
44430;SDS011;30135;47.866;-4.222;2023-04-16T07:45:25;5.53;;;1.00;;
44430;SDS011;30135;47.866;-4.222;2023-04-16T07:47:51;8.95;;;1.17;;
44430;SDS011;30135;47.866;-4.222;2023-04-16T07:50:17;8.32;;;1.42;;
44430;SDS011;30135;47.866;-4.222;2023-04-16T07:52:43;6.05;;;1.48;;
44430;SDS011;30135;47.866;-4.222;2023-04-16T07:55:10;5.80;;;0.82;;
44430;SDS011;30135;47.866;-4.222;2023-04-16T07:57:37;11.27;;;1.65;;
44430;SDS011;30135;47.866;-4.222;2023-04-16T08:00:03;6.28;;;0.82;;
44430;SDS011;30135;47.866;-4.222;2023-04-16T08:02:30;4.35;;;1.52;;
44430;SDS011;30135;47.866;-4.222;2023-04-16T08:04:56;2.83;;;0.82;;
44430;SDS011;30135;47.866;-4.222;2023-04-16T08:07:22;7.35;;;1.42;;
44430;SDS011;30135;47.866;-4.222;2023-04-16T08:09:50;10.10;;;1.23;;
44430;SDS011;30135;47.866;-4.222;2023-04-16T08:12:16;5.88;;;1.00;;
44430;SDS011;30135;47.866;-4.222;2023-04-16T08:14:44;6.05;;;0.80;;
44430;SDS011;30135;47.866;-4.222;2023-04-16T08:17:11;4.95;;;0.73;;
44430;SDS011;30135;47.866;-4.222;2023-04-16T08:19:38;9.98;;;1.25;;
44430;SDS011;30135;47.866;-4.222;2023-04-16T08:22:04;4.93;;;1.55;;
44430;SDS011;30135;47.866;-4.222;2023-04-16T08:24:30;8.05;;;1.33;;
44430;SDS011;30135;47.866;-4.222;2023-04-16T08:26:57;3.47;;;0.98;;
44430;SDS011;30135;47.866;-4.222;2023-04-16T08:29:23;5.00;;;1.30;;
44430;SDS011;30135;47.866;-4.222;2023-04-16T08:31:50;6.80;;;2.78;;
44430;SDS011;30135;47.866;-4.222;2023-04-16T08:34:17;4.38;;;1.20;;
44430;SDS011;30135;47.866;-4.222;2023-04-16T08:36:43;8.73;;;1.98;;
44430;SDS011;30135;47.866;-4.222;2023-04-16T08:39:10;3.40;;;1.02;;
44430;SDS011;30135;47.866;-4.222;2023-04-16T08:41:37;3.58;;;0.80;;
44430;SDS011;30135;47.866;-4.222;2023-04-16T08:46:36;4.25;;;1.00;;
44430;SDS011;30135;47.866;-4.222;2023-04-16T08:49:05;8.75;;;1.60;;
44430;SDS011;30135;47.866;-4.222;2023-04-16T08:51:35;9.10;;;1.13;;
44430;SDS011;30135;47.866;-4.222;2023-04-16T08:54:03;5.20;;;1.27;;
44430;SDS011;30135;47.866;-4.222;2023-04-16T08:56:36;3.83;;;1.75;;
44430;SDS011;30135;47.866;-4.222;2023-04-16T08:59:06;5.22;;;0.80;;
44430;SDS011;30135;47.866;-4.222;2023-04-16T09:01:34;10.55;;;1.40;;
44430;SDS011;30135;47.866;-4.222;2023-04-16T09:04:00;11.32;;;1.48;;
44430;SDS011;30135;47.866;-4.222;2023-04-16T09:06:29;12.10;;;2.20;;
44430;SDS011;30135;47.866;-4.222;2023-04-16T09:08:55;5.15;;;1.88;;
44430;SDS011;30135;47.866;-4.222;2023-04-16T09:11:23;4.47;;;1.35;;
44430;SDS011;30135;47.866;-4.222;2023-04-16T09:13:50;4.90;;;1.20;;
44430;SDS011;30135;47.866;-4.222;2023-04-16T09:16:17;2.00;;;1.13;;
44430;SDS011;30135;47.866;-4.222;2023-04-16T09:18:45;9.05;;;2.13;;
44430;SDS011;30135;47.866;-4.222;2023-04-16T09:21:12;10.63;;;1.27;;
44430;SDS011;30135;47.866;-4.222;2023-04-16T09:23:38;11.75;;;1.85;;
44430;SDS011;30135;47.866;-4.222;2023-04-16T09:26:05;4.57;;;1.20;;
44430;SDS011;30135;47.866;-4.222;2023-04-16T09:28:41;8.40;;;1.17;;
44430;SDS011;30135;47.866;-4.222;2023-04-16T09:31:14;6.90;;;2.40;;
44430;SDS011;30135;47.866;-4.222;2023-04-16T09:33:42;5.10;;;1.27;;
44430;SDS011;30135;47.866;-4.222;2023-04-16T09:36:33;6.90;;;2.38;;
44430;SDS011;30135;47.866;-4.222;2023-04-16T09:39:01;7.72;;;1.48;;
44430;SDS011;30135;47.866;-4.222;2023-04-16T09:41:28;8.35;;;1.35;;
44430;SDS011;30135;47.866;-4.222;2023-04-16T09:44:00;4.50;;;1.08;;
44430;SDS011;30135;47.866;-4.222;2023-04-16T09:47:01;3.22;;;1.55;;
44430;SDS011;30135;47.866;-4.222;2023-04-16T09:49:32;4.40;;;1.02;;
44430;SDS011;30135;47.866;-4.222;2023-04-16T09:52:03;9.80;;;1.98;;
44430;SDS011;30135;47.866;-4.222;2023-04-16T09:54:47;5.72;;;1.33;;
44430;SDS011;30135;47.866;-4.222;2023-04-16T09:57:21;9.38;;;1.00;;
44430;SDS011;30135;47.866;-4.222;2023-04-16T09:59:52;6.72;;;0.90;;
44430;SDS011;30135;47.866;-4.222;2023-04-16T10:02:26;4.78;;;0.93;;
44430;SDS011;30135;47.866;-4.222;2023-04-16T10:04:53;8.25;;;1.00;;
44430;SDS011;30135;47.866;-4.222;2023-04-16T10:07:19;4.18;;;1.13;;
44430;SDS011;30135;47.866;-4.222;2023-04-16T10:09:52;3.88;;;1.30;;
44430;SDS011;30135;47.866;-4.222;2023-04-16T10:12:19;4.28;;;0.82;;
44430;SDS011;30135;47.866;-4.222;2023-04-16T10:14:46;7.85;;;0.77;;
44430;SDS011;30135;47.866;-4.222;2023-04-16T10:17:12;10.25;;;0.70;;
44430;SDS011;30135;47.866;-4.222;2023-04-16T10:19:38;5.03;;;1.50;;
44430;SDS011;30135;47.866;-4.222;2023-04-16T10:22:07;4.70;;;1.47;;
44430;SDS011;30135;47.866;-4.222;2023-04-16T10:24:33;4.88;;;0.98;;
44430;SDS011;30135;47.866;-4.222;2023-04-16T10:27:00;3.08;;;0.52;;
44430;SDS011;30135;47.866;-4.222;2023-04-16T10:29:26;2.65;;;1.25;;
44430;SDS011;30135;47.866;-4.222;2023-04-16T10:31:55;4.47;;;1.20;;
44430;SDS011;30135;47.866;-4.222;2023-04-16T10:34:22;2.50;;;0.75;;
44430;SDS011;30135;47.866;-4.222;2023-04-16T10:36:50;2.17;;;0.55;;
44430;SDS011;30135;47.866;-4.222;2023-04-16T10:39:21;6.43;;;0.75;;
44430;SDS011;30135;47.866;-4.222;2023-04-16T10:42:05;7.40;;;0.90;;
44430;SDS011;30135;47.866;-4.222;2023-04-16T10:44:36;4.88;;;1.33;;
44430;SDS011;30135;47.866;-4.222;2023-04-16T10:47:05;2.35;;;0.65;;
44430;SDS011;30135;47.866;-4.222;2023-04-16T10:49:38;1.63;;;0.80;;
44430;SDS011;30135;47.866;-4.222;2023-04-16T10:52:12;4.38;;;0.95;;
44430;SDS011;30135;47.866;-4.222;2023-04-16T10:54:41;7.15;;;0.90;;
44430;SDS011;30135;47.866;-4.222;2023-04-16T10:57:08;5.53;;;0.65;;
44430;SDS011;30135;47.866;-4.222;2023-04-16T10:59:41;5.10;;;0.93;;
44430;SDS011;30135;47.866;-4.222;2023-04-16T11:02:17;4.10;;;1.08;;
44430;SDS011;30135;47.866;-4.222;2023-04-16T11:04:44;1.23;;;0.68;;
44430;SDS011;30135;47.866;-4.222;2023-04-16T11:09:56;2.70;;;0.90;;
44430;SDS011;30135;47.866;-4.222;2023-04-16T11:15:01;10.55;;;0.90;;
44430;SDS011;30135;47.866;-4.222;2023-04-16T11:17:39;3.45;;;1.63;;
44430;SDS011;30135;47.866;-4.222;2023-04-16T11:20:08;5.88;;;1.52;;
44430;SDS011;30135;47.866;-4.222;2023-04-16T11:22:47;6.30;;;1.27;;
44430;SDS011;30135;47.866;-4.222;2023-04-16T11:25:21;9.88;;;0.95;;
44430;SDS011;30135;47.866;-4.222;2023-04-16T11:27:48;7.82;;;0.50;;
44430;SDS011;30135;47.866;-4.222;2023-04-16T11:30:16;5.25;;;0.50;;
44430;SDS011;30135;47.866;-4.222;2023-04-16T11:32:44;3.28;;;0.98;;
44430;SDS011;30135;47.866;-4.222;2023-04-16T11:35:14;2.33;;;0.60;;
44430;SDS011;30135;47.866;-4.222;2023-04-16T11:37:43;5.97;;;0.85;;
44430;SDS011;30135;47.866;-4.222;2023-04-16T11:40:10;6.75;;;1.02;;
44430;SDS011;30135;47.866;-4.222;2023-04-16T11:42:37;7.85;;;0.70;;
44430;SDS011;30135;47.866;-4.222;2023-04-16T11:45:05;4.13;;;0.73;;
44430;SDS011;30135;47.866;-4.222;2023-04-16T11:47:49;5.78;;;1.35;;
44430;SDS011;30135;47.866;-4.222;2023-04-16T11:50:20;3.55;;;0.77;;
44430;SDS011;30135;47.866;-4.222;2023-04-16T11:52:49;2.78;;;0.45;;
44430;SDS011;30135;47.866;-4.222;2023-04-16T11:55:16;12.52;;;1.15;;
44430;SDS011;30135;47.866;-4.222;2023-04-16T11:57:43;1.85;;;0.60;;
44430;SDS011;30135;47.866;-4.222;2023-04-16T12:00:10;2.83;;;0.80;;
44430;SDS011;30135;47.866;-4.222;2023-04-16T12:02:42;4.03;;;1.25;;
44430;SDS011;30135;47.866;-4.222;2023-04-16T12:08:02;5.10;;;0.70;;
44430;SDS011;30135;47.866;-4.222;2023-04-16T12:10:33;5.85;;;1.02;;
44430;SDS011;30135;47.866;-4.222;2023-04-16T12:13:14;8.35;;;1.35;;
44430;SDS011;30135;47.866;-4.222;2023-04-16T12:18:12;3.78;;;1.48;;
44430;SDS011;30135;47.866;-4.222;2023-04-16T12:20:40;2.47;;;0.70;;
44430;SDS011;30135;47.866;-4.222;2023-04-16T12:23:08;2.17;;;0.57;;
44430;SDS011;30135;47.866;-4.222;2023-04-16T12:28:07;9.35;;;0.70;;
44430;SDS011;30135;47.866;-4.222;2023-04-16T12:30:33;18.42;;;1.88;;
44430;SDS011;30135;47.866;-4.222;2023-04-16T12:33:17;2.45;;;0.60;;
44430;SDS011;30135;47.866;-4.222;2023-04-16T12:35:45;2.55;;;0.77;;
44430;SDS011;30135;47.866;-4.222;2023-04-16T12:38:11;2.17;;;0.45;;
44430;SDS011;30135;47.866;-4.222;2023-04-16T12:40:39;5.05;;;1.15;;
44430;SDS011;30135;47.866;-4.222;2023-04-16T12:43:05;9.20;;;0.90;;
44430;SDS011;30135;47.866;-4.222;2023-04-16T12:45:32;3.80;;;0.75;;
44430;SDS011;30135;47.866;-4.222;2023-04-16T12:47:58;8.13;;;0.80;;
44430;SDS011;30135;47.866;-4.222;2023-04-16T12:50:25;2.88;;;0.88;;
44430;SDS011;30135;47.866;-4.222;2023-04-16T12:52:52;3.78;;;0.70;;
44430;SDS011;30135;47.866;-4.222;2023-04-16T12:55:19;6.30;;;0.68;;
44430;SDS011;30135;47.866;-4.222;2023-04-16T12:57:45;4.47;;;1.15;;
44430;SDS011;30135;47.866;-4.222;2023-04-16T13:00:13;4.22;;;1.30;;
44430;SDS011;30135;47.866;-4.222;2023-04-16T13:02:40;0.95;;;0.70;;
44430;SDS011;30135;47.866;-4.222;2023-04-16T13:05:06;7.93;;;0.80;;
44430;SDS011;30135;47.866;-4.222;2023-04-16T13:07:33;1.20;;;0.55;;
44430;SDS011;30135;47.866;-4.222;2023-04-16T13:09:59;4.10;;;0.55;;
44430;SDS011;30135;47.866;-4.222;2023-04-16T13:12:26;4.35;;;0.82;;
44430;SDS011;30135;47.866;-4.222;2023-04-16T13:14:52;11.90;;;1.63;;
44430;SDS011;30135;47.866;-4.222;2023-04-16T13:17:19;5.55;;;0.50;;
44430;SDS011;30135;47.866;-4.222;2023-04-16T13:19:46;3.80;;;0.70;;
44430;SDS011;30135;47.866;-4.222;2023-04-16T13:22:12;8.38;;;0.77;;
44430;SDS011;30135;47.866;-4.222;2023-04-16T13:24:38;5.38;;;0.70;;
44430;SDS011;30135;47.866;-4.222;2023-04-16T13:27:04;7.68;;;0.73;;
44430;SDS011;30135;47.866;-4.222;2023-04-16T13:29:32;3.95;;;0.40;;
44430;SDS011;30135;47.866;-4.222;2023-04-16T13:32:00;2.95;;;0.57;;
44430;SDS011;30135;47.866;-4.222;2023-04-16T13:34:27;6.28;;;0.65;;
44430;SDS011;30135;47.866;-4.222;2023-04-16T13:36:53;1.60;;;0.50;;
44430;SDS011;30135;47.866;-4.222;2023-04-16T13:39:19;9.77;;;0.98;;
44430;SDS011;30135;47.866;-4.222;2023-04-16T13:41:45;1.95;;;0.90;;
44430;SDS011;30135;47.866;-4.222;2023-04-16T13:44:13;4.47;;;0.95;;
44430;SDS011;30135;47.866;-4.222;2023-04-16T13:46:39;5.47;;;0.45;;
44430;SDS011;30135;47.866;-4.222;2023-04-16T13:49:07;3.42;;;0.75;;
44430;SDS011;30135;47.866;-4.222;2023-04-16T13:51:33;9.38;;;1.23;;
44430;SDS011;30135;47.866;-4.222;2023-04-16T13:54:00;6.13;;;0.70;;
44430;SDS011;30135;47.866;-4.222;2023-04-16T13:56:26;2.97;;;0.57;;
44430;SDS011;30135;47.866;-4.222;2023-04-16T13:58:52;2.63;;;0.50;;
44430;SDS011;30135;47.866;-4.222;2023-04-16T14:01:18;3.22;;;1.00;;
44430;SDS011;30135;47.866;-4.222;2023-04-16T14:03:44;1.50;;;0.50;;
44430;SDS011;30135;47.866;-4.222;2023-04-16T14:06:10;1.88;;;0.52;;
44430;SDS011;30135;47.866;-4.222;2023-04-16T14:08:37;2.55;;;0.60;;
44430;SDS011;30135;47.866;-4.222;2023-04-16T14:11:06;3.25;;;0.47;;
44430;SDS011;30135;47.866;-4.222;2023-04-16T14:13:33;3.88;;;0.60;;
44430;SDS011;30135;47.866;-4.222;2023-04-16T14:15:59;5.47;;;1.27;;
44430;SDS011;30135;47.866;-4.222;2023-04-16T14:18:26;3.20;;;0.90;;
44430;SDS011;30135;47.866;-4.222;2023-04-16T14:20:52;3.90;;;0.90;;
44430;SDS011;30135;47.866;-4.222;2023-04-16T14:23:19;6.60;;;0.75;;
44430;SDS011;30135;47.866;-4.222;2023-04-16T14:25:45;1.92;;;0.40;;
44430;SDS011;30135;47.866;-4.222;2023-04-16T14:28:11;5.53;;;0.73;;
44430;SDS011;30135;47.866;-4.222;2023-04-16T14:30:37;4.50;;;0.40;;
44430;SDS011;30135;47.866;-4.222;2023-04-16T14:33:04;12.05;;;0.95;;
44430;SDS011;30135;47.866;-4.222;2023-04-16T14:35:30;5.93;;;0.43;;
44430;SDS011;30135;47.866;-4.222;2023-04-16T14:37:58;3.85;;;0.77;;
44430;SDS011;30135;47.866;-4.222;2023-04-16T14:40:25;2.90;;;0.85;;
44430;SDS011;30135;47.866;-4.222;2023-04-16T14:42:51;2.15;;;0.75;;
44430;SDS011;30135;47.866;-4.222;2023-04-16T14:45:17;1.98;;;0.60;;
44430;SDS011;30135;47.866;-4.222;2023-04-16T14:47:43;3.60;;;0.35;;
44430;SDS011;30135;47.866;-4.222;2023-04-16T14:50:12;23.20;;;0.77;;
44430;SDS011;30135;47.866;-4.222;2023-04-16T14:52:41;0.80;;;0.22;;